Terminal Aerodrome Forecast
Issued by NWS Missoula, MT

Home | Current Version | Previous Version | Text Only | Print | Product List | Glossary On
Versions: 1 2 3 4 5 6 7 8 9 10 11 12 13
679
FTUS45 KMSO 231120
TAFMSO
TAF
KMSO 231120Z 2312/2412 VRB03KT P6SM SKC
     FM232000 28008KT P6SM SCT080
     FM240000 29010G20KT P6SM FEW080
     FM240300 16006KT P6SM SCT070
     FM241100 28008KT P6SM SCT070=

USA.gov is the U.S. government's official web portal to all federal, state and local government web resources and services.